Time;durP1;ratioP1;P1;durP2;ratioP2;P2;SDS_P1;SDS_P2;PMS_P1;PMS_P2;Temp;Humidity;BMP_temperature;BMP_pressure;BME280_temperature;BME280_humidity;BME280_pressure;Samples;Min_cycle;Max_cycle;Signal;HPM_P1;HPM_P2
2022/07/21 00:05:23;;;;;;;9.40;6.60;;;;;;;21.29;49.56;98968.43;433890;1267;108694;-48
2022/07/21 00:15:31;;;;;;;9.70;6.80;;;;;;;20.84;50.44;98964.95;433920;1266;97909;-43
2022/07/21 00:25:38;;;;;;;9.00;6.90;;;;;;;20.49;51.00;98963.91;434034;1267;111023;-43
2022/07/21 00:35:46;;;;;;;10.50;6.90;;;;;;;20.51;51.80;98964.64;434021;1267;108796;-44
2022/07/21 00:45:55;;;;;;;10.40;7.40;;;;;;;20.54;52.42;98957.61;434059;1267;97491;-44
2022/07/21 00:56:02;;;;;;;9.50;6.40;;;;;;;20.38;52.58;98957.03;434129;1266;111050;-46
2022/07/21 01:06:10;;;;;;;10.40;7.30;;;;;;;20.18;53.22;98949.23;434071;1258;108848;-45
2022/07/21 01:16:18;;;;;;;11.90;8.10;;;;;;;19.91;53.73;98948.75;433089;1271;97915;-45
2022/07/21 01:26:26;;;;;;;16.30;8.60;;;;;;;19.64;54.19;98948.72;433001;1270;110536;-46
2022/07/21 01:36:33;;;;;;;11.70;8.50;;;;;;;19.48;54.85;98939.17;432985;1270;108918;-44
2022/07/21 01:46:43;;;;;;;12.70;10.30;;;;;;;19.44;55.58;98923.42;433054;1271;97883;-47
2022/07/21 01:56:51;;;;;;;16.80;10.50;;;;;;;19.28;55.88;98919.67;432909;1270;111167;-45
2022/07/21 02:06:58;;;;;;;21.20;9.90;;;;;;;19.17;56.64;98921.64;432269;1270;108687;-44
2022/07/21 02:17:05;;;;;;;13.50;10.10;;;;;;;19.19;56.76;98923.29;432683;1270;97901;-46
2022/07/21 02:27:13;;;;;;;12.40;9.90;;;;;;;19.14;57.40;98914.94;432495;1271;111165;-44
2022/07/21 02:37:23;;;;;;;15.50;11.00;;;;;;;19.17;57.60;98905.29;432624;1271;109357;-44
2022/07/21 02:47:31;;;;;;;10.80;8.50;;;;;;;19.17;57.61;98896.96;432557;1271;97625;-49
2022/07/21 02:57:38;;;;;;;14.80;8.60;;;;;;;19.14;57.98;98895.11;432401;1271;111079;-47
2022/07/21 03:07:45;;;;;;;15.90;10.80;;;;;;;19.07;58.40;98904.80;432406;1269;108854;-47
2022/07/21 03:17:53;;;;;;;12.30;9.80;;;;;;;19.26;58.55;98916.31;432476;1270;97948;-44
2022/07/21 03:28:00;;;;;;;20.50;10.20;;;;;;;19.26;58.38;98920.86;432536;1271;111093;-45
2022/07/21 03:38:08;;;;;;;15.20;9.70;;;;;;;19.19;58.81;98926.29;432412;1271;109022;-48
2022/07/21 03:48:14;;;;;;;;;;;;;;;19.87;58.63;98920.20;432668;1270;98176;-44
2022/07/21 03:58:22;;;;;;;11.20;8.30;;;;;;;21.34;57.70;98909.85;432519;1271;110756;-43
2022/07/21 04:08:29;;;;;;;13.30;9.20;;;;;;;22.79;56.49;98912.54;432531;1270;108800;-44
2022/07/21 04:18:37;;;;;;;15.40;9.60;;;;;;;24.15;55.00;98913.60;432677;1269;97906;-46
2022/07/21 04:28:44;;;;;;;18.60;11.50;;;;;;;25.54;53.63;98922.91;432623;1270;111815;-43
2022/07/21 04:38:52;;;;;;;21.40;12.30;;;;;;;26.53;52.01;98916.69;432539;1270;108837;-45
2022/07/21 04:48:59;;;;;;;16.90;9.60;;;;;;;27.41;50.83;98910.04;432571;1270;98002;-43
2022/07/21 04:59:06;;;;;;;15.90;7.30;;;;;;;28.10;49.89;98904.11;432493;1270;111241;-45
2022/07/21 05:09:14;;;;;;;10.60;7.80;;;;;;;28.81;48.23;98908.92;432605;1270;108873;-44
2022/07/21 05:19:21;;;;;;;12.60;8.00;;;;;;;29.19;47.02;98919.54;432548;1270;97491;-48
2022/07/21 05:29:28;;;;;;;9.40;7.50;;;;;;;29.29;45.74;98928.70;432797;1270;109676;-44
2022/07/21 05:39:35;;;;;;;16.00;9.10;;;;;;;29.11;44.94;98940.49;432644;1270;96606;-44
2022/07/21 05:49:43;;;;;;;30.30;12.50;;;;;;;29.02;44.32;98938.64;432825;1270;110823;-44
2022/07/21 05:59:50;;;;;;;30.40;12.80;;;;;;;28.84;43.72;98939.13;432616;1270;108728;-44
2022/07/21 06:09:59;;;;;;;29.30;10.60;;;;;;;28.90;43.53;98954.33;432587;1270;97905;-43
2022/07/21 06:20:10;;;;;;;21.90;9.50;;;;;;;29.34;43.22;98953.29;432410;1271;108883;-46
2022/07/21 06:30:17;;;;;;;19.20;10.40;;;;;;;30.11;42.88;98957.41;432530;1270;96718;-45
2022/07/21 06:40:25;;;;;;;17.70;10.70;;;;;;;30.50;41.96;98958.86;432592;1270;111133;-43
2022/07/21 06:50:33;;;;;;;11.40;7.90;;;;;;;30.54;41.77;98960.67;432589;1270;108876;-45
2022/07/21 07:00:40;;;;;;;23.60;8.60;;;;;;;31.54;41.47;98970.98;432652;1270;97779;-45
2022/07/21 07:10:48;;;;;;;14.90;7.50;;;;;;;31.80;40.11;98968.73;432884;1270;111033;-43
2022/07/21 07:20:55;;;;;;;12.00;6.80;;;;;;;31.87;39.54;98970.08;432800;1270;107106;-45
2022/07/21 07:31:03;;;;;;;11.50;6.20;;;;;;;32.32;39.35;98974.01;432917;1269;98017;-44
2022/07/21 07:41:10;;;;;;;10.20;6.40;;;;;;;32.67;38.51;98977.63;432893;1270;111089;-47
2022/07/21 07:51:18;;;;;;;6.80;6.10;;;;;;;33.13;37.93;98962.11;432808;1270;108810;-45
2022/07/21 08:01:25;;;;;;;7.10;5.10;;;;;;;32.96;36.77;98954.91;433003;1270;96728;-43
2022/07/21 08:11:33;;;;;;;8.00;6.30;;;;;;;32.18;36.04;98959.23;432934;1270;108794;-43
2022/07/21 08:21:41;;;;;;;15.40;7.60;;;;;;;32.52;35.93;98950.27;432868;1270;97918;-44
2022/07/21 08:32:08;;;;;;;15.10;7.50;;;;;;;32.45;34.97;98952.17;433045;1270;110760;-44
2022/07/21 08:42:16;;;;;;;8.60;5.40;;;;;;;32.05;35.27;98949.88;432882;1270;108880;-43
2022/07/21 08:52:24;;;;;;;4.70;4.20;;;;;;;32.11;34.24;98946.82;433080;1269;96686;-43
2022/07/21 09:02:33;;;;;;;7.80;4.90;;;;;;;31.68;34.00;98939.41;433050;1270;106713;-42
2022/07/21 09:12:52;;;;;;;9.00;5.20;;;;;;;31.37;33.99;98940.20;433392;1270;97526;-42
2022/07/21 09:43:34;;;;;;;8.10;5.00;;;;;;;32.34;34.32;98940.52;433424;1270;97520;-43
2022/07/21 09:53:49;;;;;;;5.90;4.70;;;;;;;32.03;33.59;98940.76;433414;1269;110929;-42
2022/07/21 10:03:58;;;;;;;5.40;4.80;;;;;;;31.96;33.18;98939.86;433360;1269;108881;-43
2022/07/21 10:24:10;;;;;;;9.60;5.00;;;;;;;32.06;32.53;98917.21;433365;1269;111020;-43
2022/07/21 10:34:35;;;;;;;8.20;4.40;;;;;;;32.04;32.41;98916.88;433380;1269;108854;-47
2022/07/21 10:44:45;;;;;;;;;;;;;;;32.08;32.35;98914.90;433388;1270;97908;-46
2022/07/21 10:55:16;;;;;;;6.80;4.10;;;;;;;32.38;32.11;98906.73;433459;1270;108817;-44
2022/07/21 11:05:27;;;;;;;7.90;4.50;;;;;;;32.61;31.76;98896.05;433333;1269;97920;-48
2022/07/21 11:15:58;;;;;;;7.10;4.90;;;;;;;32.72;31.33;98899.08;433491;1269;111029;-43
2022/07/21 11:26:05;;;;;;;8.10;4.60;;;;;;;32.95;31.78;98898.02;433360;1270;108829;-43
2022/07/21 11:36:23;;;;;;;6.90;4.20;;;;;;;32.97;31.78;98895.07;433147;1270;98048;-43
2022/07/21 11:46:45;;;;;;;6.40;4.30;;;;;;;32.89;31.46;98884.09;433032;1270;398404;-42
2022/07/21 11:56:50;;;;;;;8.90;4.60;;;;;;;33.15;31.53;98874.70;433446;1269;96660;-46
2022/07/21 12:06:59;;;;;;;8.10;4.90;;;;;;;33.23;31.07;98865.55;433313;1269;110869;-43
2022/07/21 12:17:09;;;;;;;9.00;4.30;;;;;;;33.11;31.06;98858.59;433351;1269;108500;-44
2022/07/21 12:27:25;;;;;;;7.10;4.30;;;;;;;33.34;30.73;98853.86;433367;1269;96964;-47
2022/07/21 12:37:58;;;;;;;7.80;3.90;;;;;;;33.62;29.67;98845.23;433421;1269;111713;-42
2022/07/21 12:48:14;;;;;;;6.90;4.40;;;;;;;33.65;28.94;98839.60;433261;1268;107978;-43
2022/07/21 12:58:22;;;;;;;8.80;3.90;;;;;;;33.77;28.10;98834.38;433241;1269;96671;-44
2022/07/21 13:08:31;;;;;;;9.40;4.00;;;;;;;33.64;27.38;98839.13;433126;1269;111144;-43
2022/07/21 13:18:42;;;;;;;4.60;3.50;;;;;;;33.79;26.60;98826.70;433214;1269;109268;-46
2022/07/21 13:28:52;;;;;;;8.10;4.30;;;;;;;33.81;25.91;98812.58;433237;1269;96679;-48
2022/07/21 13:39:04;;;;;;;5.70;4.70;;;;;;;33.72;25.92;98799.08;433299;1269;110940;-43
2022/07/21 13:49:33;;;;;;;13.20;5.20;;;;;;;33.71;26.61;98799.15;433043;1269;108721;-43
2022/07/21 13:59:41;;;;;;;9.80;4.90;;;;;;;33.78;26.79;98782.04;433196;1269;97968;-43
2022/07/21 14:09:49;;;;;;;12.50;4.60;;;;;;;33.76;26.95;98777.23;433237;1269;111211;-47
2022/07/21 14:19:57;;;;;;;7.40;4.20;;;;;;;33.75;27.87;98769.56;433019;1269;109205;-45
2022/07/21 14:30:06;;;;;;;9.40;4.70;;;;;;;33.74;27.61;98772.29;433244;1270;97799;-43
2022/07/21 14:40:16;;;;;;;11.60;4.30;;;;;;;33.71;28.02;98769.30;433203;1269;111184;-47
2022/07/21 14:50:25;;;;;;;10.90;4.50;;;;;;;33.77;28.18;98761.97;433091;1270;108884;-44
2022/07/21 15:00:35;;;;;;;16.50;4.50;;;;;;;33.58;28.21;98749.60;433056;1269;99474;-42
2022/07/21 15:10:42;;;;;;;4.60;3.90;;;;;;;33.47;27.81;98739.98;433133;1270;111607;-45
2022/07/21 15:20:51;;;;;;;6.40;4.20;;;;;;;33.44;28.21;98735.73;433189;1270;108062;-45
2022/07/21 15:30:58;;;;;;;11.20;4.00;;;;;;;33.36;27.90;98735.95;433164;1270;98018;-45
2022/07/21 15:41:15;;;;;;;9.50;4.50;;;;;;;33.20;27.13;98724.91;433101;1270;111306;-44
2022/07/21 15:51:44;;;;;;;7.50;3.70;;;;;;;33.21;27.28;98720.30;433254;1270;108762;-43
2022/07/21 16:11:58;;;;;;;9.60;4.80;;;;;;;32.81;26.63;98712.23;433132;1269;111150;-43
2022/07/21 16:22:04;;;;;;;8.40;4.40;;;;;;;32.63;27.74;98710.77;433321;1270;107835;-41
2022/07/21 16:32:14;;;;;;;11.80;4.40;;;;;;;32.49;27.83;98708.10;433135;1270;96968;-47
2022/07/21 16:42:22;;;;;;;10.80;4.60;;;;;;;32.30;28.36;98707.56;433057;1269;108504;-42
2022/07/21 16:52:31;;;;;;;11.30;4.50;;;;;;;32.11;28.92;98709.00;432990;1269;97913;-46
2022/07/21 17:02:39;;;;;;;8.80;3.90;;;;;;;31.93;28.96;98703.13;433066;1269;111315;-42
2022/07/21 17:12:49;;;;;;;8.30;3.90;;;;;;;31.74;29.24;98698.32;433232;1269;108809;-44
2022/07/21 17:22:58;;;;;;;8.20;3.80;;;;;;;31.53;29.75;98699.86;433196;1269;97909;-44
2022/07/21 17:33:09;;;;;;;4.80;4.00;;;;;;;31.29;29.54;98694.64;432960;1269;111068;-43
2022/07/21 17:43:18;;;;;;;9.20;4.40;;;;;;;30.99;29.94;98689.73;432945;1269;108909;-42
2022/07/21 17:53:25;;;;;;;7.50;5.10;;;;;;;30.68;30.78;98689.01;433063;1269;97553;-43
2022/07/21 18:13:44;;;;;;;14.00;4.70;;;;;;;29.82;32.40;98680.80;433076;1270;108224;-42
2022/07/21 18:23:57;;;;;;;9.70;4.90;;;;;;;29.30;33.37;98676.75;433041;1270;96713;-45
2022/07/21 18:34:06;;;;;;;11.80;4.50;;;;;;;28.66;34.33;98672.94;433072;1269;110865;-42
2022/07/21 18:44:17;;;;;;;12.60;6.30;;;;;;;28.08;35.40;98671.43;432931;1270;108816;-41
2022/07/21 18:54:28;;;;;;;18.40;6.90;;;;;;;27.40;36.18;98677.23;432940;1270;97795;-41
2022/07/21 19:04:39;;;;;;;12.80;6.20;;;;;;;26.65;37.93;98675.47;433067;1269;110663;-40
2022/07/21 19:14:50;;;;;;;7.80;5.80;;;;;;;26.04;39.16;98676.11;433065;1270;107861;-42
2022/07/21 19:25:01;;;;;;;14.30;6.70;;;;;;;25.85;39.68;98679.73;433109;1270;97897;-44
2022/07/21 19:35:12;;;;;;;16.00;7.40;;;;;;;25.48;40.50;98679.20;433145;1269;111034;-41
2022/07/21 19:45:23;;;;;;;14.10;6.00;;;;;;;25.19;41.02;98689.23;433235;1269;108896;-43
2022/07/21 19:55:41;;;;;;;14.60;7.20;;;;;;;24.97;41.60;98692.83;433169;1270;97907;-43
2022/07/21 20:05:57;;;;;;;14.00;6.40;;;;;;;24.57;41.98;98685.71;433042;1270;110988;-43
2022/07/21 20:16:15;;;;;;;15.80;6.90;;;;;;;24.28;42.69;98682.21;433130;1270;109159;-43
2022/07/21 20:26:42;;;;;;;15.80;6.70;;;;;;;24.12;43.07;98679.85;433152;1270;96685;-44
2022/07/21 20:37:00;;;;;;;12.10;6.60;;;;;;;23.90;43.76;98675.19;433230;1270;107803;-44
2022/07/21 20:47:16;;;;;;;13.30;5.20;;;;;;;23.76;43.98;98671.16;433173;1270;98002;-44
2022/07/21 20:57:31;;;;;;;9.70;6.00;;;;;;;23.86;43.77;98671.87;433030;1269;110139;-43
2022/07/21 21:07:46;;;;;;;9.80;5.60;;;;;;;23.83;43.78;98669.70;432706;1270;108569;-41
2022/07/21 21:17:59;;;;;;;12.00;5.80;;;;;;;23.96;43.48;98660.15;432900;1269;96650;-42
2022/07/21 21:28:12;;;;;;;12.10;6.00;;;;;;;23.96;43.24;98658.09;433110;1270;111098;-42
2022/07/21 21:38:36;;;;;;;9.50;5.10;;;;;;;23.74;43.39;98649.68;433035;1270;108836;-43
2022/07/21 21:48:48;;;;;;;11.80;5.40;;;;;;;23.59;43.65;98638.06;433135;1271;97899;-45
2022/07/21 21:58:57;;;;;;;10.60;4.60;;;;;;;23.54;43.85;98632.05;433066;1269;110844;-43
2022/07/21 22:09:06;;;;;;;8.70;4.40;;;;;;;23.54;43.87;98623.95;433099;1271;108980;-44
2022/07/21 22:19:13;;;;;;;;;;;;;;;23.73;43.61;98621.67;433283;1271;97899;-45
2022/07/21 22:29:21;;;;;;;7.40;4.20;;;;;;;23.97;43.53;98628.40;432524;1270;108871;-44
2022/07/21 22:39:29;;;;;;;7.30;3.70;;;;;;;23.72;43.38;98629.25;432979;1271;97910;-45
2022/07/21 22:49:35;;;;;;;13.10;4.70;;;;;;;23.30;43.86;98624.32;432688;1270;110756;-43
2022/07/21 22:59:41;;;;;;;9.90;4.50;;;;;;;23.16;44.28;98623.06;432702;1271;108834;-43
2022/07/21 23:09:49;;;;;;;7.40;4.70;;;;;;;23.19;44.43;98624.98;432644;1271;98501;-43
2022/07/21 23:19:56;;;;;;;10.30;5.30;;;;;;;22.90;44.57;98619.95;432551;1271;111025;-43
2022/07/21 23:30:03;;;;;;;10.00;7.20;;;;;;;22.84;45.26;98653.33;432592;1271;108893;-45
2022/07/21 23:40:12;;;;;;;15.90;5.40;;;;;;;22.29;45.63;98687.88;432012;1271;560253;-45
2022/07/21 23:50:19;;;;;;;9.80;6.60;;;;;;;21.74;46.35;98686.80;432676;1269;108836;-47
